Time;durP1;ratioP1;P1;durP2;ratioP2;P2;SDS_P1;SDS_P2;PMS_P1;PMS_P2;Temp;Humidity;BMP_temperature;BMP_pressure;BME280_temperature;BME280_humidity;BME280_pressure;Samples;Min_cycle;Max_cycle;Signal;HPM_P1;HPM_P2
2022/11/24 00:01:26;;;;;;;1.08;0.32;;;3.30;99.90;;;;;;5077073;28;20429;-73
2022/11/24 00:03:59;;;;;;;0.30;0.30;;;3.40;99.90;;;;;;5060738;28;20431;-73
2022/11/24 00:06:26;;;;;;;0.90;0.40;;;3.60;99.90;;;;;;5069613;28;20558;-73
2022/11/24 00:08:56;;;;;;;0.20;0.20;;;3.70;99.90;;;;;;5064804;28;20918;-73
2022/11/24 00:11:29;;;;;;;0.20;0.20;;;3.90;99.90;;;;;;5066151;28;20419;-73
2022/11/24 00:13:57;;;;;;;0.30;0.30;;;4.00;99.90;;;;;;5070112;28;20480;-74
2022/11/24 00:16:26;;;;;;;1.10;0.75;;;4.00;99.90;;;;;;5072757;28;20423;-75
2022/11/24 00:18:55;;;;;;;0.60;0.60;;;4.10;99.90;;;;;;5062879;28;20498;-74
2022/11/24 00:21:22;;;;;;;0.80;0.45;;;4.10;99.90;;;;;;5071345;28;20439;-73
2022/11/24 00:23:51;;;;;;;0.20;0.20;;;4.10;99.90;;;;;;5059765;28;20444;-74
2022/11/24 00:26:22;;;;;;;0.40;0.40;;;4.20;99.90;;;;;;5052472;28;20772;-74
2022/11/24 00:28:52;;;;;;;0.20;0.20;;;4.10;99.90;;;;;;5058541;28;20427;-74
2022/11/24 00:31:31;;;;;;;2.80;0.50;;;4.10;99.90;;;;;;5056987;28;20434;-74
2022/11/24 00:34:01;;;;;;;1.25;0.38;;;4.10;99.90;;;;;;5049844;28;20439;-74
2022/11/24 00:36:30;;;;;;;0.40;0.40;;;4.00;99.90;;;;;;5055034;28;20470;-74
2022/11/24 00:39:02;;;;;;;0.20;0.20;;;4.20;99.90;;;;;;5059595;28;20442;-75
2022/11/24 00:41:30;;;;;;;0.65;0.40;;;4.30;99.90;;;;;;5066598;28;20427;-75
2022/11/24 00:43:57;;;;;;;0.15;0.15;;;4.30;99.90;;;;;;5050611;28;20432;-75
2022/11/24 00:46:25;;;;;;;2.50;0.35;;;4.40;99.90;;;;;;5051515;28;20937;-75
2022/11/24 00:48:52;;;;;;;0.30;0.30;;;4.40;99.90;;;;;;5050312;28;20437;-75
2022/11/24 00:51:21;;;;;;;0.90;0.30;;;4.40;99.90;;;;;;5051121;28;20492;-75
2022/11/24 00:53:48;;;;;;;0.40;0.40;;;4.40;99.90;;;;;;5055083;28;20431;-75
2022/11/24 00:56:18;;;;;;;0.10;0.10;;;4.40;99.90;;;;;;5069689;28;20432;-75
2022/11/24 00:58:45;;;;;;;0.30;0.30;;;4.50;99.90;;;;;;5056859;28;20421;-75
2022/11/24 01:01:14;;;;;;;0.30;0.30;;;4.50;99.90;;;;;;5052709;28;20425;-74
2022/11/24 01:03:45;;;;;;;0.50;0.50;;;4.40;99.90;;;;;;5070429;28;20520;-75
2022/11/24 01:06:18;;;;;;;0.67;0.43;;;4.30;99.90;;;;;;5062126;28;20442;-75
2022/11/24 01:08:45;;;;;;;0.85;0.55;;;4.20;99.90;;;;;;5065044;28;20441;-75
2022/11/24 01:11:15;;;;;;;0.35;0.35;;;4.10;99.90;;;;;;5056994;28;20430;-75
2022/11/24 01:13:44;;;;;;;0.50;0.50;;;4.00;99.90;;;;;;5063949;28;20441;-74
2022/11/24 01:16:26;;;;;;;0.30;0.30;;;4.00;99.90;;;;;;5048978;28;20438;-74
2022/11/24 01:18:54;;;;;;;0.30;0.30;;;3.90;99.90;;;;;;5050834;28;20431;-75
2022/11/24 01:21:24;;;;;;;0.57;0.47;;;3.90;99.90;;;;;;5049262;28;20458;-75
2022/11/24 01:23:51;;;;;;;0.20;0.20;;;3.90;99.90;;;;;;5043894;28;20425;-75
2022/11/24 01:26:20;;;;;;;0.30;0.30;;;3.80;99.90;;;;;;5056548;28;20934;-75
2022/11/24 01:28:54;;;;;;;0.60;0.60;;;3.70;99.90;;;;;;5056863;28;20423;-75
2022/11/24 01:31:22;;;;;;;0.40;0.40;;;3.60;99.90;;;;;;5064428;28;20435;-75
2022/11/24 01:33:48;;;;;;;0.40;0.40;;;3.60;99.90;;;;;;5068197;28;20427;-75
2022/11/24 01:36:15;;;;;;;6.00;0.30;;;3.60;99.90;;;;;;5052204;28;20468;-75
2022/11/24 01:38:42;;;;;;;0.40;0.40;;;3.60;99.90;;;;;;5049998;28;20553;-75
2022/11/24 01:41:21;;;;;;;3.50;0.40;;;3.60;99.90;;;;;;5066409;28;20430;-75
2022/11/24 01:43:48;;;;;;;0.32;0.17;;;3.50;99.90;;;;;;5048699;28;20440;-75
2022/11/24 01:46:21;;;;;;;0.30;0.30;;;3.40;99.90;;;;;;5052430;28;20431;-75
2022/11/24 01:49:00;;;;;;;0.57;0.13;;;3.40;99.90;;;;;;5051094;28;20508;-76
2022/11/24 01:51:31;;;;;;;2.30;0.30;;;3.50;99.90;;;;;;5062500;28;20435;-75
2022/11/24 01:54:27;;;;;;;0.20;0.20;;;3.70;99.90;;;;;;5067161;28;20436;-75
2022/11/24 01:57:00;;;;;;;0.10;0.10;;;3.80;99.90;;;;;;5058791;28;20432;-75
2022/11/24 01:59:28;;;;;;;0.10;0.10;;;3.90;99.90;;;;;;5062847;28;20454;-74
2022/11/24 02:01:57;;;;;;;0.70;0.30;;;4.00;99.90;;;;;;5061980;28;20905;-75
2022/11/24 02:04:28;;;;;;;0.25;0.25;;;4.10;99.90;;;;;;5060882;28;20782;-75
2022/11/24 02:07:01;;;;;;;0.05;0.05;;;4.10;99.90;;;;;;5062845;28;20435;-75
2022/11/24 02:09:52;;;;;;;0.10;0.10;;;4.10;99.90;;;;;;5058017;28;20432;-75
2022/11/24 02:12:21;;;;;;;0.22;0.22;;;4.20;99.90;;;;;;5061270;28;20434;-75
2022/11/24 02:14:49;;;;;;;0.20;0.20;;;4.20;99.90;;;;;;5062582;28;20429;-75
2022/11/24 02:17:16;;;;;;;0.20;0.20;;;4.20;99.90;;;;;;5063810;28;20443;-75
2022/11/24 02:20:16;;;;;;;0.60;0.40;;;4.20;99.90;;;;;;5058272;28;20425;-75
2022/11/24 02:22:48;;;;;;;0.20;0.20;;;4.20;99.90;;;;;;5063057;28;20438;-75
2022/11/24 02:25:36;;;;;;;0.30;0.30;;;4.20;99.90;;;;;;5065616;28;20751;-75
2022/11/24 02:28:07;;;;;;;0.30;0.30;;;4.20;99.90;;;;;;5064981;28;20435;-74
2022/11/24 02:30:44;;;;;;;0.30;0.30;;;4.20;99.90;;;;;;5064194;28;20457;-74
2022/11/24 02:33:12;;;;;;;1.00;0.50;;;4.10;99.90;;;;;;5064088;28;20440;-74
2022/11/24 02:35:39;;;;;;;0.55;0.55;;;4.00;99.90;;;;;;5064867;28;20436;-74
2022/11/24 02:38:06;;;;;;;0.17;0.17;;;4.00;99.90;;;;;;5065320;28;20545;-73
2022/11/24 02:40:33;;;;;;;0.40;0.40;;;4.10;99.90;;;;;;5061793;28;20435;-75
2022/11/24 02:43:08;;;;;;;0.10;0.10;;;4.20;99.90;;;;;;5067289;28;20431;-74
2022/11/24 02:45:35;;;;;;;0.40;0.40;;;4.30;99.90;;;;;;5063523;28;20431;-74
2022/11/24 02:48:02;;;;;;;0.30;0.30;;;4.40;99.90;;;;;;5066082;28;20504;-74
2022/11/24 02:50:31;;;;;;;0.70;0.70;;;4.50;99.90;;;;;;5062704;28;20440;-74
2022/11/24 02:53:03;;;;;;;0.32;0.32;;;4.60;99.90;;;;;;5058418;28;20438;-75
2022/11/24 02:55:33;;;;;;;0.70;0.30;;;4.70;99.90;;;;;;5062064;28;20436;-75
2022/11/24 02:58:05;;;;;;;0.30;0.30;;;4.70;99.90;;;;;;5066985;28;20514;-75
2022/11/24 03:00:32;;;;;;;0.30;0.30;;;4.80;99.90;;;;;;5060140;28;20443;-75
2022/11/24 03:03:05;;;;;;;0.10;0.10;;;4.90;99.90;;;;;;5060749;28;20471;-75
2022/11/24 03:05:32;;;;;;;2.10;0.25;;;4.90;99.90;;;;;;5064303;28;20443;-75
2022/11/24 03:07:58;;;;;;;3.20;0.40;;;5.00;99.90;;;;;;5063881;28;20431;-75
2022/11/24 03:10:25;;;;;;;2.00;0.22;;;4.90;99.90;;;;;;5062216;28;20431;-74
2022/11/24 03:12:54;;;;;;;0.28;0.28;;;5.00;99.90;;;;;;5062263;28;20454;-74
2022/11/24 03:15:22;;;;;;;0.45;0.35;;;5.10;99.90;;;;;;5065078;28;20430;-74
2022/11/24 03:17:49;;;;;;;0.30;0.30;;;5.10;99.90;;;;;;5056020;28;20437;-74
2022/11/24 03:20:16;;;;;;;0.40;0.40;;;5.00;99.90;;;;;;5059949;28;20727;-74
2022/11/24 03:22:46;;;;;;;0.28;0.28;;;5.00;99.90;;;;;;5061683;28;20935;-74
2022/11/24 03:25:13;;;;;;;0.30;0.30;;;5.00;99.90;;;;;;5061525;28;20977;-74
2022/11/24 03:27:39;;;;;;;1.50;0.50;;;5.00;99.90;;;;;;5062183;28;21027;-74
2022/11/24 03:30:07;;;;;;;0.15;0.15;;;5.00;99.90;;;;;;5052134;28;20433;-75
2022/11/24 03:32:36;;;;;;;0.50;0.50;;;4.90;99.90;;;;;;5057053;28;20983;-74
2022/11/24 03:35:03;;;;;;;0.20;0.20;;;4.90;99.90;;;;;;5058278;28;20434;-74
2022/11/24 03:37:30;;;;;;;0.10;0.10;;;4.80;99.90;;;;;;5061486;28;20933;-74
2022/11/24 03:39:59;;;;;;;0.20;0.20;;;4.70;99.90;;;;;;5057702;28;20527;-74
2022/11/24 03:42:26;;;;;;;0.30;0.30;;;4.60;99.90;;;;;;5068650;28;20962;-74
2022/11/24 03:44:52;;;;;;;0.20;0.20;;;4.40;99.90;;;;;;5069372;28;20411;-75
2022/11/24 03:47:19;;;;;;;0.55;0.40;;;4.40;99.90;;;;;;5056730;28;20429;-75
2022/11/24 03:49:46;;;;;;;1.90;0.30;;;4.40;99.90;;;;;;5067127;28;20975;-74
2022/11/24 03:52:13;;;;;;;2.90;0.50;;;4.40;99.90;;;;;;5065642;28;20774;-75
2022/11/24 03:54:41;;;;;;;0.20;0.20;;;4.50;99.90;;;;;;5054147;28;20415;-75
2022/11/24 03:57:08;;;;;;;0.40;0.23;;;4.50;99.90;;;;;;5063477;28;20469;-74
2022/11/24 03:59:35;;;;;;;0.20;0.20;;;4.50;99.90;;;;;;5070231;28;20429;-74
2022/11/24 04:02:01;;;;;;;0.30;0.30;;;4.60;99.90;;;;;;5066812;28;20429;-76
2022/11/24 04:04:28;;;;;;;0.10;0.10;;;4.70;99.90;;;;;;5068977;28;20439;-75
2022/11/24 04:06:55;;;;;;;0.40;0.40;;;4.80;99.90;;;;;;5068121;28;20470;-75
2022/11/24 04:09:25;;;;;;;1.70;0.17;;;4.90;99.90;;;;;;5062188;28;20531;-74
2022/11/24 04:14:37;;;;;;;0.47;0.28;;;5.30;99.90;;;;;;5069053;28;20962;-74
2022/11/24 04:17:04;;;;;;;0.17;0.17;;;5.50;99.90;;;;;;5067674;28;20427;-75
2022/11/24 04:19:31;;;;;;;1.80;0.40;;;5.60;99.90;;;;;;5072933;28;20419;-75
2022/11/24 04:21:57;;;;;;;0.40;0.40;;;5.70;99.90;;;;;;5065791;28;20425;-74
2022/11/24 04:24:24;;;;;;;0.70;0.30;;;5.70;99.90;;;;;;5066353;28;20425;-74
2022/11/24 04:26:51;;;;;;;0.33;0.33;;;5.80;99.90;;;;;;5062605;28;20432;-75
2022/11/24 04:29:17;;;;;;;0.30;0.30;;;5.90;99.90;;;;;;5068774;28;20902;-74
2022/11/24 04:31:45;;;;;;;5.00;0.50;;;6.00;99.90;;;;;;5068702;28;20432;-74
2022/11/24 04:34:11;;;;;;;0.70;0.40;;;6.10;99.90;;;;;;5070864;28;20427;-74
2022/11/24 04:36:39;;;;;;;0.22;0.22;;;6.10;99.90;;;;;;5071079;28;20435;-74
2022/11/24 04:39:07;;;;;;;0.90;0.50;;;6.20;99.90;;;;;;5068480;28;20429;-74
2022/11/24 04:41:50;;;;;;;2.03;0.28;;;6.20;99.90;;;;;;5059585;28;20430;-74
2022/11/24 04:44:20;;;;;;;0.28;0.28;;;6.30;99.90;;;;;;5066069;28;20439;-75
2022/11/24 04:46:46;;;;;;;0.70;0.40;;;6.40;99.90;;;;;;5071807;28;20424;-74
2022/11/24 04:49:13;;;;;;;0.35;0.35;;;6.40;99.90;;;;;;5063694;28;20458;-74
2022/11/24 04:51:40;;;;;;;0.52;0.40;;;6.40;99.90;;;;;;5070023;28;20942;-74
2022/11/24 04:54:10;;;;;;;0.63;0.63;;;6.50;99.90;;;;;;5071304;28;20442;-74
2022/11/24 04:56:37;;;;;;;0.10;0.10;;;6.50;99.90;;;;;;5068978;28;20427;-74
2022/11/24 04:59:04;;;;;;;1.60;0.30;;;6.60;99.90;;;;;;5068821;28;20473;-74
2022/11/24 05:01:34;;;;;;;0.50;0.30;;;6.60;99.90;;;;;;5074213;28;20431;-74
2022/11/24 05:04:01;;;;;;;0.30;0.30;;;6.70;99.90;;;;;;5060994;28;20429;-74
2022/11/24 05:06:28;;;;;;;0.10;0.10;;;6.80;99.90;;;;;;5057308;28;20469;-74
2022/11/24 05:08:55;;;;;;;0.13;0.13;;;6.90;99.90;;;;;;5063169;28;20956;-74
2022/11/24 05:11:22;;;;;;;0.32;0.32;;;6.90;99.90;;;;;;5053728;28;20446;-74
2022/11/24 05:13:52;;;;;;;0.30;0.30;;;6.90;99.90;;;;;;5057247;28;20440;-74
2022/11/24 05:16:18;;;;;;;4.30;0.32;;;6.90;99.90;;;;;;5060205;28;20460;-74
2022/11/24 05:18:45;;;;;;;0.22;0.22;;;7.00;99.90;;;;;;5054034;28;20435;-75
2022/11/24 05:21:12;;;;;;;1.52;0.20;;;7.00;99.90;;;;;;5062358;28;20423;-75
2022/11/24 05:23:39;;;;;;;0.40;0.40;;;7.10;99.90;;;;;;5052725;28;20439;-74
2022/11/24 05:26:06;;;;;;;8.50;1.10;;;7.10;99.90;;;;;;5060062;28;20446;-74
2022/11/24 05:28:33;;;;;;;2.40;0.30;;;7.10;99.90;;;;;;5064746;28;20435;-75
2022/11/24 05:31:01;;;;;;;0.45;0.45;;;7.10;99.90;;;;;;5066433;28;20479;-75
2022/11/24 05:33:28;;;;;;;0.20;0.20;;;7.20;70.80;;;;;;5061313;28;21125;-74
2022/11/24 05:36:00;;;;;;;2.20;0.68;;;7.20;42.10;;;;;;5068609;28;20423;-74
2022/11/24 05:38:30;;;;;;;0.40;0.30;;;7.20;3.80;;;;;;5061620;28;20948;-74
2022/11/24 05:41:04;;;;;;;1.20;0.70;;;7.20;1.00;;;;;;5069180;28;20902;-74
2022/11/24 05:43:31;;;;;;;0.20;0.20;;;7.30;1.00;;;;;;5066777;28;20427;-74
2022/11/24 05:46:00;;;;;;;1.25;0.50;;;7.20;1.00;;;;;;5059834;28;20866;-73
2022/11/24 05:48:27;;;;;;;0.93;0.63;;;7.30;1.00;;;;;;5043691;28;20484;-74
2022/11/24 05:50:57;;;;;;;2.20;0.50;;;7.30;1.00;;;;;;5058297;28;20433;-74
2022/11/24 05:53:25;;;;;;;0.30;0.20;;;7.30;1.00;;;;;;5066588;28;20432;-73
2022/11/24 05:55:52;;;;;;;2.97;0.82;;;7.40;1.00;;;;;;5066986;28;20430;-73
2022/11/24 05:58:19;;;;;;;0.50;0.50;;;7.30;1.00;;;;;;5064244;28;20430;-73
2022/11/24 06:00:46;;;;;;;1.20;0.40;;;7.30;1.00;;;;;;5057566;28;20430;-72
2022/11/24 06:03:13;;;;;;;1.00;1.00;;;7.40;1.00;;;;;;5059247;28;20435;-73
2022/11/24 06:05:45;;;;;;;0.70;0.70;;;7.40;99.90;;;;;;5058678;28;20426;-73
2022/11/24 06:08:13;;;;;;;0.43;0.43;;;7.40;99.90;;;;;;5058261;28;20465;-73
2022/11/24 06:10:39;;;;;;;1.10;0.60;;;7.40;99.90;;;;;;5063859;28;20466;-73
2022/11/24 06:13:07;;;;;;;0.90;0.60;;;7.40;99.90;;;;;;5069220;28;20509;-73
2022/11/24 06:15:36;;;;;;;0.22;0.22;;;7.40;99.90;;;;;;5048671;28;20441;-73
2022/11/24 06:18:03;;;;;;;0.52;0.52;;;7.40;99.90;;;;;;5052196;28;20477;-73
2022/11/24 06:20:30;;;;;;;2.00;0.60;;;7.40;99.90;;;;;;5065996;28;20462;-73
2022/11/24 06:23:06;;;;;;;0.30;0.30;;;7.40;99.90;;;;;;5055803;27;20404;-73
2022/11/24 06:25:33;;;;;;;2.23;0.30;;;7.50;99.90;;;;;;5063311;28;20428;-74
2022/11/24 06:28:02;;;;;;;2.30;0.60;;;7.50;99.90;;;;;;5056626;28;20433;-73
2022/11/24 06:30:30;;;;;;;0.30;0.30;;;7.40;99.90;;;;;;5065373;28;20434;-71
2022/11/24 06:32:57;;;;;;;1.20;1.00;;;7.40;99.90;;;;;;5060021;28;20463;-71
2022/11/24 06:35:24;;;;;;;0.57;0.57;;;7.40;84.90;;;;;;5063363;28;20434;-71
2022/11/24 06:37:51;;;;;;;0.30;0.30;;;7.40;1.00;;;;;;5063138;28;20511;-71
2022/11/24 06:40:18;;;;;;;2.70;0.80;;;7.50;1.00;;;;;;5053165;28;20523;-72
2022/11/24 06:42:50;;;;;;;3.35;0.70;;;7.50;1.00;;;;;;5065076;28;20432;-72
2022/11/24 06:45:16;;;;;;;0.50;0.50;;;7.40;1.00;;;;;;5060444;28;20560;-72
2022/11/24 06:47:43;;;;;;;0.50;0.50;;;7.40;1.00;;;;;;5058758;28;20432;-71
2022/11/24 06:50:11;;;;;;;0.30;0.30;;;7.30;1.00;;;;;;5062507;28;20435;-73
2022/11/24 06:52:37;;;;;;;0.40;0.40;;;7.20;99.90;;;;;;5060155;28;20428;-71
2022/11/24 06:55:05;;;;;;;3.05;0.55;;;7.10;99.90;;;;;;5054135;28;20432;-72
2022/11/24 06:57:32;;;;;;;0.30;0.10;;;7.10;99.90;;;;;;5053360;28;20466;-72
2022/11/24 06:59:58;;;;;;;0.80;0.47;;;7.00;99.90;;;;;;5067213;28;20463;-71
2022/11/24 07:02:25;;;;;;;3.85;0.93;;;7.00;1.00;;;;;;5067579;28;20915;-72
2022/11/24 07:04:52;;;;;;;0.30;0.30;;;7.00;1.00;;;;;;5062993;28;20432;-72
2022/11/24 07:07:19;;;;;;;0.30;0.30;;;6.90;1.00;;;;;;5061199;28;20426;-72
2022/11/24 07:09:45;;;;;;;1.40;0.50;;;6.90;1.00;;;;;;5057333;28;21237;-72
2022/11/24 07:12:12;;;;;;;2.23;0.50;;;6.90;1.00;;;;;;5054760;28;20436;-72
2022/11/24 07:14:39;;;;;;;2.50;0.77;;;6.90;1.00;;;;;;5059252;28;20447;-72
2022/11/24 07:17:06;;;;;;;1.17;0.73;;;6.90;1.00;;;;;;5059447;28;20555;-72
2022/11/24 07:19:35;;;;;;;0.68;0.28;;;6.90;1.00;;;;;;5064758;28;20437;-72
2022/11/24 07:22:02;;;;;;;3.80;0.70;;;6.90;1.00;;;;;;5057708;28;20513;-72
2022/11/24 07:24:36;;;;;;;0.30;0.30;;;6.90;1.00;;;;;;5063932;28;20519;-71
2022/11/24 07:27:03;;;;;;;0.50;0.50;;;7.00;1.00;;;;;;5055649;28;21272;-72
2022/11/24 07:29:30;;;;;;;0.20;0.20;;;7.10;1.00;;;;;;5056268;28;20454;-72
2022/11/24 07:31:57;;;;;;;1.60;0.60;;;7.20;1.00;;;;;;5058571;28;21136;-72
2022/11/24 07:34:30;;;;;;;2.60;0.75;;;7.20;99.90;;;;;;5047370;28;20988;-72
2022/11/24 07:36:58;;;;;;;0.82;0.52;;;7.30;99.90;;;;;;5046138;28;20456;-72
2022/11/24 07:39:25;;;;;;;0.60;0.60;;;7.30;99.90;;;;;;5043904;28;20524;-72
2022/11/24 07:41:52;;;;;;;0.20;0.20;;;7.40;99.90;;;;;;5045690;28;20946;-72
2022/11/24 07:44:19;;;;;;;2.80;0.38;;;7.40;93.40;;;;;;5042153;28;20429;-72
2022/11/24 07:46:46;;;;;;;2.20;0.50;;;7.40;1.00;;;;;;5032466;28;20420;-72
2022/11/24 07:49:13;;;;;;;1.60;0.30;;;7.40;1.00;;;;;;5048621;28;20429;-72
2022/11/24 07:51:40;;;;;;;0.60;0.30;;;7.50;1.00;;;;;;5052435;28;20436;-72
2022/11/24 07:54:07;;;;;;;2.60;0.80;;;7.60;1.00;;;;;;5041536;28;20843;-72
2022/11/24 07:56:34;;;;;;;3.35;0.77;;;7.60;1.00;;;;;;5054347;28;20445;-72
2022/11/24 07:59:00;;;;;;;1.13;0.43;;;7.70;99.90;;;;;;5050960;28;20484;-72
2022/11/24 08:01:27;;;;;;;1.17;0.73;;;7.70;1.00;;;;;;5052810;28;20483;-72
2022/11/24 08:03:54;;;;;;;0.90;0.90;;;7.70;1.00;;;;;;5046299;28;20430;-72
2022/11/24 08:06:21;;;;;;;0.50;0.45;;;7.70;99.90;;;;;;5058210;28;20428;-72
2022/11/24 08:08:52;;;;;;;0.90;0.40;;;7.70;99.90;;;;;;5041857;28;20435;-72
2022/11/24 08:11:21;;;;;;;2.20;0.57;;;7.70;99.90;;;;;;5050546;28;20433;-72
2022/11/24 08:13:48;;;;;;;0.38;0.38;;;7.70;99.90;;;;;;5053544;28;21052;-72
2022/11/24 08:16:17;;;;;;;1.90;0.52;;;7.70;99.90;;;;;;5040044;28;20433;-72
2022/11/24 08:18:51;;;;;;;1.05;0.30;;;7.70;99.90;;;;;;5046127;28;21033;-72
2022/11/24 08:21:19;;;;;;;0.30;0.30;;;7.70;1.00;;;;;;5042489;28;20489;-72
2022/11/24 08:23:45;;;;;;;0.90;0.30;;;7.70;99.90;;;;;;5049760;28;20425;-71
2022/11/24 08:26:16;;;;;;;3.05;0.45;;;7.70;99.90;;;;;;5049330;28;20434;-71
2022/11/24 08:28:44;;;;;;;0.30;0.30;;;7.70;99.90;;;;;;5046825;28;20429;-71
2022/11/24 08:31:17;;;;;;;1.60;0.73;;;7.70;1.00;;;;;;5048134;28;20950;-71
2022/11/24 08:33:44;;;;;;;0.77;0.40;;;7.70;20.90;;;;;;5047007;28;20984;-71
2022/11/24 08:36:16;;;;;;;3.00;0.50;;;7.80;91.10;;;;;;5053221;28;20482;-71
2022/11/24 08:38:43;;;;;;;0.30;0.30;;;8.00;60.00;;;;;;5048643;28;20431;-71
2022/11/24 08:41:19;;;;;;;4.20;0.73;;;8.20;1.00;;;;;;5040241;28;20425;-71
2022/11/24 08:43:46;;;;;;;1.45;0.88;;;8.30;1.00;;;;;;5041847;28;20435;-71
2022/11/24 08:46:15;;;;;;;0.85;0.43;;;8.50;99.90;;;;;;5047104;28;20475;-71
2022/11/24 08:48:49;;;;;;;0.23;0.23;;;8.60;99.90;;;;;;5034275;28;20423;-72
2022/11/24 08:51:19;;;;;;;0.20;0.20;;;8.50;99.90;;;;;;5056194;28;20557;-73
2022/11/24 08:53:45;;;;;;;0.25;0.22;;;8.60;99.90;;;;;;5057405;28;20435;-73
2022/11/24 08:56:15;;;;;;;0.82;0.57;;;8.60;99.90;;;;;;5049834;28;20419;-73
2022/11/24 08:58:42;;;;;;;1.20;0.50;;;8.60;99.90;;;;;;5044994;28;20425;-73
2022/11/24 09:01:14;;;;;;;0.65;0.40;;;8.60;99.90;;;;;;5050738;28;21073;-73
2022/11/24 09:03:43;;;;;;;0.88;0.40;;;8.60;99.90;;;;;;5048652;28;20761;-73
2022/11/24 09:06:26;;;;;;;1.90;0.30;;;8.70;99.90;;;;;;5049831;28;20430;-73
2022/11/24 09:08:54;;;;;;;2.50;0.30;;;8.70;99.90;;;;;;5051299;28;20429;-73
2022/11/24 09:11:24;;;;;;;0.30;0.30;;;8.80;99.90;;;;;;5045624;28;20425;-73
2022/11/24 09:13:52;;;;;;;0.60;0.50;;;8.90;99.90;;;;;;5048733;28;20461;-73
2022/11/24 09:16:21;;;;;;;0.20;0.20;;;9.00;99.90;;;;;;5053898;28;20421;-73
2022/11/24 09:18:55;;;;;;;0.25;0.25;;;9.20;99.90;;;;;;5045921;28;20821;-73
2022/11/24 09:21:22;;;;;;;0.30;0.30;;;9.30;99.90;;;;;;5041852;28;20435;-73
2022/11/24 09:23:51;;;;;;;0.30;0.30;;;9.30;99.90;;;;;;5054269;28;20517;-73
2022/11/24 09:26:21;;;;;;;0.30;0.30;;;9.30;99.90;;;;;;5049619;28;20431;-73
2022/11/24 09:28:53;;;;;;;3.15;0.65;;;9.40;99.90;;;;;;5061382;28;20460;-73
2022/11/24 09:31:25;;;;;;;0.10;0.10;;;9.50;99.90;;;;;;5044616;28;20476;-73
2022/11/24 09:33:52;;;;;;;0.40;0.40;;;9.70;99.90;;;;;;5046173;28;20425;-73
2022/11/24 09:36:19;;;;;;;2.93;0.70;;;10.50;99.90;;;;;;5047705;28;20815;-73
2022/11/24 09:38:46;;;;;;;0.90;0.40;;;10.80;99.90;;;;;;5048680;28;20499;-73
2022/11/24 09:41:16;;;;;;;2.60;0.70;;;10.80;99.90;;;;;;5042024;28;20431;-73
2022/11/24 09:44:07;;;;;;;0.70;0.40;;;10.80;99.90;;;;;;5045454;28;20435;-73
2022/11/24 09:47:00;;;;;;;0.35;0.35;;;10.60;99.90;;;;;;5044484;28;20491;-73
2022/11/24 09:49:41;;;;;;;0.52;0.52;;;10.70;99.90;;;;;;5049482;28;20440;-73
2022/11/24 09:52:13;;;;;;;1.40;0.50;;;10.80;99.90;;;;;;5044118;28;20437;-73
2022/11/24 09:55:02;;;;;;;0.30;0.30;;;11.10;99.90;;;;;;5039714;28;20429;-73
2022/11/24 09:57:35;;;;;;;0.50;0.50;;;12.10;99.90;;;;;;5041586;28;20433;-72
2022/11/24 10:00:11;;;;;;;0.57;0.57;;;13.00;99.90;;;;;;5044632;28;20495;-73
2022/11/24 10:02:38;;;;;;;0.30;0.30;;;13.10;99.90;;;;;;5041494;28;20421;-73
2022/11/24 10:05:05;;;;;;;0.47;0.47;;;13.10;99.90;;;;;;5036636;28;20895;-72
2022/11/24 10:07:41;;;;;;;1.90;0.98;;;12.60;99.90;;;;;;5047120;28;20502;-73
2022/11/24 10:10:33;;;;;;;2.65;0.70;;;12.30;99.90;;;;;;5045979;28;20425;-73
2022/11/24 10:13:21;;;;;;;1.38;0.43;;;12.10;99.90;;;;;;5039617;28;20446;-73
2022/11/24 10:16:00;;;;;;;0.38;0.32;;;11.80;99.90;;;;;;5040848;28;20425;-73
2022/11/24 10:18:51;;;;;;;2.90;0.60;;;11.60;99.90;;;;;;5039963;28;20433;-72
2022/11/24 10:21:51;;;;;;;1.70;0.30;;;11.50;99.90;;;;;;5055007;28;20927;-72
2022/11/24 10:24:36;;;;;;;0.50;0.50;;;11.30;99.90;;;;;;5047962;28;21174;-72
2022/11/24 10:27:16;;;;;;;1.13;0.53;;;11.30;99.90;;;;;;5048960;28;20440;-73
2022/11/24 10:29:50;;;;;;;2.28;0.70;;;11.20;99.90;;;;;;5049219;28;20440;-73
2022/11/24 10:32:35;;;;;;;3.00;0.63;;;11.40;99.90;;;;;;5052627;28;20428;-72
2022/11/24 10:35:18;;;;;;;2.30;0.40;;;11.40;99.90;;;;;;5040450;28;20436;-73
2022/11/24 10:37:49;;;;;;;0.68;0.68;;;11.60;99.90;;;;;;5047775;28;20432;-72
2022/11/24 10:40:38;;;;;;;0.30;0.30;;;12.20;99.90;;;;;;5040096;28;20982;-73
2022/11/24 10:43:28;;;;;;;0.40;0.35;;;12.50;99.90;;;;;;5044698;28;20432;-72
2022/11/24 10:46:10;;;;;;;0.80;0.50;;;13.00;99.90;;;;;;5047781;28;20467;-72
2022/11/24 10:48:51;;;;;;;0.57;0.30;;;13.40;99.90;;;;;;5049003;28;20461;-72
2022/11/24 10:51:49;;;;;;;0.20;0.20;;;13.90;99.90;;;;;;5040736;28;20971;-72
2022/11/24 10:54:21;;;;;;;0.20;0.20;;;14.00;99.90;;;;;;5045165;28;20431;-72
2022/11/24 10:56:53;;;;;;;0.50;0.30;;;14.60;99.90;;;;;;5045242;28;20457;-72
2022/11/24 10:59:23;;;;;;;1.10;0.45;;;15.10;99.90;;;;;;5031423;28;20435;-73
2022/11/24 11:01:51;;;;;;;1.80;0.30;;;14.80;99.90;;;;;;5034739;28;20508;-72
2022/11/24 11:04:30;;;;;;;2.55;0.50;;;14.40;99.90;;;;;;5039530;28;20455;-73
2022/11/24 11:07:17;;;;;;;0.45;0.30;;;13.80;99.90;;;;;;5031215;28;20795;-72
2022/11/24 11:09:47;;;;;;;2.17;0.50;;;13.60;99.90;;;;;;5038494;28;20461;-72
2022/11/24 11:12:26;;;;;;;0.35;0.35;;;14.00;99.90;;;;;;5028391;28;20435;-72
2022/11/24 11:15:29;;;;;;;1.40;0.20;;;14.00;99.90;;;;;;5044653;28;20968;-72
2022/11/24 11:18:00;;;;;;;0.55;0.38;;;13.60;99.90;;;;;;5045429;28;20437;-72
2022/11/24 11:20:32;;;;;;;1.70;0.55;;;13.40;99.90;;;;;;5051133;28;20541;-72
2022/11/24 11:23:14;;;;;;;0.20;0.20;;;13.80;99.90;;;;;;5036092;28;21016;-72
2022/11/24 11:25:42;;;;;;;2.70;0.40;;;14.50;99.90;;;;;;5045276;28;20457;-73
2022/11/24 11:28:24;;;;;;;0.80;0.40;;;15.20;99.90;;;;;;5046295;28;21040;-72
2022/11/24 11:31:05;;;;;;;0.25;0.25;;;15.80;99.90;;;;;;5047520;28;20429;-72
2022/11/24 11:33:58;;;;;;;1.20;0.50;;;15.90;99.90;;;;;;5037485;28;20529;-73
2022/11/24 11:36:50;;;;;;;1.02;0.40;;;15.50;99.90;;;;;;5047272;28;20520;-72
2022/11/24 11:39:35;;;;;;;0.38;0.38;;;14.70;99.90;;;;;;5050856;28;20491;-72
2022/11/24 11:42:02;;;;;;;0.80;0.40;;;14.00;99.90;;;;;;5042663;28;21288;-72
2022/11/24 11:44:40;;;;;;;0.60;0.30;;;13.40;99.90;;;;;;5043701;28;20429;-72
2022/11/24 11:47:14;;;;;;;0.20;0.20;;;13.00;99.90;;;;;;5045751;28;20449;-72
2022/11/24 11:49:41;;;;;;;0.50;0.30;;;12.70;99.90;;;;;;5042640;28;20428;-71
2022/11/24 11:52:17;;;;;;;1.00;0.30;;;12.80;99.90;;;;;;5040930;28;20429;-70
2022/11/24 11:55:04;;;;;;;2.90;0.30;;;13.00;99.90;;;;;;5044613;28;20445;-71
2022/11/24 11:57:54;;;;;;;0.20;0.20;;;12.80;99.90;;;;;;5041776;28;20429;-71
2022/11/24 12:00:21;;;;;;;5.38;0.63;;;12.50;99.90;;;;;;5039380;28;20559;-71
2022/11/24 12:03:19;;;;;;;3.00;0.70;;;12.40;99.90;;;;;;5044366;28;20437;-72
2022/11/24 12:05:56;;;;;;;2.30;0.30;;;12.20;99.90;;;;;;5044141;28;20811;-72
2022/11/24 12:08:48;;;;;;;0.43;0.43;;;11.90;99.90;;;;;;5043102;28;20440;-73
2022/11/24 12:12:02;;;;;;;0.20;0.20;;;11.80;99.90;;;;;;5037139;28;20426;-71
2022/11/24 12:14:53;;;;;;;0.28;0.17;;;11.90;99.90;;;;;;5040701;28;20446;-73
2022/11/24 12:17:38;;;;;;;0.10;0.10;;;11.80;99.90;;;;;;5041261;28;20900;-76
2022/11/24 12:20:22;;;;;;;1.30;0.40;;;11.80;99.90;;;;;;5042708;28;20840;-71
2022/11/24 12:23:10;;;;;;;0.20;0.20;;;11.60;99.90;;;;;;5046545;28;20441;-72
2022/11/24 12:25:40;;;;;;;0.22;0.22;;;11.40;99.90;;;;;;5043854;28;20432;-72
2022/11/24 12:28:24;;;;;;;2.00;0.50;;;11.10;99.90;;;;;;5046003;28;20498;-72
2022/11/24 12:31:14;;;;;;;0.40;0.40;;;10.90;99.90;;;;;;5042804;28;20425;-73
2022/11/24 12:34:31;;;;;;;0.40;0.40;;;10.70;99.90;;;;;;5025932;28;20471;-73
2022/11/24 12:37:27;;;;;;;0.43;0.43;;;10.60;99.90;;;;;;4990852;28;20450;-72
2022/11/24 12:40:14;;;;;;;0.60;0.47;;;10.70;99.90;;;;;;5016628;28;20447;-73
2022/11/24 12:43:00;;;;;;;1.70;0.30;;;10.90;99.90;;;;;;5016353;28;20442;-73
2022/11/24 12:45:54;;;;;;;0.50;0.50;;;11.10;99.90;;;;;;5021347;28;20521;-72
2022/11/24 12:48:51;;;;;;;0.40;0.40;;;11.30;99.90;;;;;;5000889;28;20434;-73
2022/11/24 12:51:24;;;;;;;0.50;0.50;;;11.50;99.90;;;;;;5019031;28;20462;-73
2022/11/24 12:53:51;;;;;;;0.20;0.20;;;11.70;99.90;;;;;;5015429;28;20438;-72
2022/11/24 12:56:28;;;;;;;0.30;0.30;;;12.20;99.90;;;;;;5027207;28;20496;-72
2022/11/24 12:58:59;;;;;;;1.42;0.50;;;12.80;99.90;;;;;;5022383;28;20527;-73
2022/11/24 13:01:32;;;;;;;1.45;0.28;;;13.30;99.90;;;;;;5025902;28;20461;-72
2022/11/24 13:04:33;;;;;;;0.22;0.22;;;13.50;99.90;;;;;;5019423;28;20458;-73
2022/11/24 13:07:24;;;;;;;0.50;0.50;;;13.60;99.90;;;;;;5029876;28;20533;-72
2022/11/24 13:10:23;;;;;;;0.30;0.20;;;13.40;99.90;;;;;;5021450;28;20501;-72
2022/11/24 13:13:12;;;;;;;0.47;0.38;;;13.10;99.90;;;;;;5037150;28;20906;-72
2022/11/24 13:15:54;;;;;;;0.70;0.30;;;12.80;99.90;;;;;;5045280;28;20518;-72
2022/11/24 13:18:42;;;;;;;0.38;0.38;;;12.50;99.90;;;;;;5040909;28;20437;-73
2022/11/24 13:21:39;;;;;;;0.77;0.32;;;12.10;99.90;;;;;;5044190;28;20934;-73
2022/11/24 13:24:20;;;;;;;0.45;0.45;;;11.80;99.90;;;;;;5045088;28;20440;-72
2022/11/24 13:26:49;;;;;;;1.17;0.45;;;11.90;99.90;;;;;;5033002;28;20431;-73